地図

経路データ

SID SEASON NUMBER BASIN SUBBASIN NAME ISO_TIME NATURE LAT LON WMO_WIND WMO_PRES WMO_AGENCY TRACK_TYPE DIST2LAND LANDFALL IFLAG USA_AGENCY USA_ATCF_ID USA_LAT USA_LON USA_RECORD USA_STATUS USA_WIND USA_PRES USA_SSHS USA_R34_NE USA_R34_SE USA_R34_SW USA_R34_NW USA_R50_NE USA_R50_SE USA_R50_SW USA_R50_NW USA_R64_NE USA_R64_SE USA_R64_SW USA_R64_NW USA_POCI USA_ROCI USA_RMW USA_EYE TOKYO_LAT TOKYO_LON TOKYO_GRADE TOKYO_WIND TOKYO_PRES TOKYO_R50_DIR TOKYO_R50_LONG TOKYO_R50_SHORT TOKYO_R30_DIR TOKYO_R30_LONG TOKYO_R30_SHORT TOKYO_LAND CMA_LAT CMA_LON CMA_CAT CMA_WIND CMA_PRES HKO_LAT HKO_LON HKO_CAT HKO_WIND HKO_PRES NEWDELHI_LAT NEWDELHI_LON NEWDELHI_GRADE NEWDELHI_WIND NEWDELHI_PRES NEWDELHI_CI NEWDELHI_DP NEWDELHI_POCI REUNION_LAT REUNION_LON REUNION_TYPE REUNION_WIND REUNION_PRES REUNION_TNUM REUNION_CI REUNION_RMW REUNION_R34_NE REUNION_R34_SE REUNION_R34_SW REUNION_R34_NW REUNION_R50_NE REUNION_R50_SE REUNION_R50_SW REUNION_R50_NW REUNION_R64_NE REUNION_R64_SE REUNION_R64_SW REUNION_R64_NW BOM_LAT BOM_LON BOM_TYPE BOM_WIND BOM_PRES BOM_TNUM BOM_CI BOM_RMW BOM_R34_NE BOM_R34_SE BOM_R34_SW BOM_R34_NW BOM_R50_NE BOM_R50_SE BOM_R50_SW BOM_R50_NW BOM_R64_NE BOM_R64_SE BOM_R64_SW BOM_R64_NW BOM_ROCI BOM_POCI BOM_EYE BOM_POS_METHOD BOM_PRES_METHOD NADI_LAT NADI_LON NADI_CAT NADI_WIND NADI_PRES WELLINGTON_LAT WELLINGTON_LON WELLINGTON_WIND WELLINGTON_PRES DS824_LAT DS824_LON DS824_STAGE DS824_WIND DS824_PRES TD9636_LAT TD9636_LON TD9636_STAGE TD9636_WIND TD9636_PRES TD9635_LAT TD9635_LON TD9635_WIND TD9635_PRES TD9635_ROCI NEUMANN_LAT NEUMANN_LON NEUMANN_CLASS NEUMANN_WIND NEUMANN_PRES MLC_LAT MLC_LON MLC_CLASS MLC_WIND MLC_PRES USA_GUST BOM_GUST BOM_GUST_PER REUNION_GUST REUNION_GUST_PER USA_SEAHGT USA_SEARAD_NE USA_SEARAD_SE USA_SEARAD_SW USA_SEARAD_NW STORM_SPEED STORM_DIR
1970274S08076 1971 124 SI MM BETSY 1970-10-01 06:00:00 TS -8.00000 76.0000 reunion main 1639 1610 _____O______O_ -1 -8.00000 76.0000 2 9.90000 -8.00000 76.0000 TC 25 13 313
1970274S08076 1971 124 SI MM BETSY 1970-10-01 09:00:00 TS -7.55510 75.5172 main 1614 1587 _____P______P_ -1 -7.55510 75.5172 2 -7.55510 75.5172 TC 27 13 309
1970274S08076 1971 124 SI MM BETSY 1970-10-01 12:00:00 TS -7.20000 75.0000 reunion main 1591 1585 _____O______O_ -1 -7.20000 75.0000 99 9.90000 -7.20000 75.0000 TC 30 12 299
1970274S08076 1971 124 SI MM BETSY 1970-10-01 15:00:00 TS -6.95992 74.4229 main 1597 1585 _____P______P_ -1 -6.95992 74.4229 99 -6.95992 74.4229 TC 30 13 297
1970274S08076 1971 124 SI MM BETSY 1970-10-01 18:00:00 TS -6.60000 73.8000 reunion main 1585 1539 _____O______O_ -1 -6.60000 73.8000 99 9.90000 -6.60000 73.8000 TC 30 18 315
1970274S08076 1971 124 SI MM BETSY 1970-10-01 21:00:00 TS -5.70241 73.1718 main 1530 1500 _____P______P_ -1 -5.70241 73.1718 99 -5.70241 73.1718 TC 30 21 321
1970274S08076 1971 124 SI MM BETSY 1970-10-02 00:00:00 TS -5.00000 72.5000 reunion main 1506 1506 _____O______O_ -1 -5.00000 72.5000 99 9.90000 -5.00000 72.5000 TC 30 15 289
1970274S08076 1971 124 SI MM BETSY 1970-10-02 03:00:00 TS -5.20763 71.7132 main 1577 1577 _____P______P_ -1 -5.20763 71.7132 99 -5.20763 71.7132 TC 30 17 245
1970274S08076 1971 124 SI MM BETSY 1970-10-02 06:00:00 TS -5.70000 71.0000 reunion main 1669 1669 _____O______O_ -1 -5.70000 71.0000 2 9.90000 -5.70000 71.0000 TC 30 14 241
1970274S08076 1971 124 SI MM BETSY 1970-10-02 09:00:00 TS -5.84986 70.5248 main 1712 1712 _____P______P_ -1 -5.84986 70.5248 2 -5.84986 70.5248 TC 30 9 249
1970274S08076 1971 124 SI MM BETSY 1970-10-02 12:00:00 TS -6.00000 70.2000 reunion main 1751 1751 _____O______O_ -1 -6.00000 70.2000 99 9.90000 -6.00000 70.2000 TC 30 8 230
1970274S08076 1971 124 SI MM BETSY 1970-10-02 15:00:00 TS -6.34243 69.9425 main 1798 1798 _____P______P_ -1 -6.34243 69.9425 99 -6.34243 69.9425 TC 30 9 215
1970274S08076 1971 124 SI MM BETSY 1970-10-02 18:00:00 TS -6.70000 69.7000 reunion main 1847 1847 _____O______O_ -1 -6.70000 69.7000 99 9.90000 -6.70000 69.7000 TC 30 8 227
1970274S08076 1971 124 SI MM BETSY 1970-10-02 21:00:00 TS -6.88502 69.3574 main 1885 1885 _____P______P_ -1 -6.88502 69.3574 99 -6.88502 69.3574 TC 32 8 240
1970274S08076 1971 124 SI MM BETSY 1970-10-03 00:00:00 TS -7.10000 69.0000 reunion main 1898 1842 _____O______O_ -1 -7.10000 69.0000 99 9.90000 -7.10000 69.0000 TC 35 10 224
1970274S08076 1971 124 SI MM BETSY 1970-10-03 03:00:00 TS -7.56498 68.6851 main 1833 1778 _____P______P_ -1 -7.56498 68.6851 99 -7.56498 68.6851 TC 35 11 213
1970274S08076 1971 124 SI MM BETSY 1970-10-03 06:00:00 TS -8.00000 68.4000 reunion main 1778 1755 _____O______O_ -1 -8.00000 68.4000 3 9.90000 -8.00000 68.4000 TC 35 8 223
1970274S08076 1971 124 SI MM BETSY 1970-10-03 09:00:00 TS -8.12995 68.1498 main 1748 1726 _____P______P_ -1 -8.12995 68.1498 3 -8.12995 68.1498 TC 35 5 248
1970274S08076 1971 124 SI MM BETSY 1970-10-03 12:00:00 TS -8.20000 67.9000 reunion main 1726 1688 _____O______O_ -1 -8.20000 67.9000 99 9.90000 -8.20000 67.9000 TC 35 6 239
1970274S08076 1971 124 SI MM BETSY 1970-10-03 15:00:00 TS -8.44999 67.6076 main 1688 1641 _____P______P_ -1 -8.44999 67.6076 99 -8.44999 67.6076 TC 35 8 230
1970274S08076 1971 124 SI MM BETSY 1970-10-03 18:00:00 TS -8.70000 67.3000 reunion main 1641 1612 _____O______O_ -1 -8.70000 67.3000 99 9.90000 -8.70000 67.3000 TC 35 7 237
1970274S08076 1971 124 SI MM BETSY 1970-10-03 21:00:00 TS -8.82996 67.0074 main 1612 1583 _____P______P_ -1 -8.82996 67.0074 99 -8.82996 67.0074 TC 35 6 251
1970274S08076 1971 124 SI MM BETSY 1970-10-04 00:00:00 TS -8.90000 66.7000 reunion main 1583 1564 _____O______O_ -1 -8.90000 66.7000 99 9.90000 -8.90000 66.7000 TC 35 6 259
1970274S08076 1971 124 SI MM BETSY 1970-10-04 03:00:00 TS -8.94994 66.3724 main 1564 1529 _____P______P_ -1 -8.94994 66.3724 99 -8.94994 66.3724 TC 35 7 262
1970274S08076 1971 124 SI MM BETSY 1970-10-04 06:00:00 TS -9.00000 66.0000 reunion main 1529 1495 _____O______O_ -1 -9.00000 66.0000 3 9.90000 -9.00000 66.0000 TC 35 8 261
1970274S08076 1971 124 SI MM BETSY 1970-10-04 09:00:00 TS -9.06994 65.5799 main 1495 1456 _____P______P_ -1 -9.06994 65.5799 3 -9.06994 65.5799 TC 35 9 257
1970274S08076 1971 124 SI MM BETSY 1970-10-04 12:00:00 TS -9.20000 65.1000 reunion main 1456 1408 _____O______O_ -1 -9.20000 65.1000 3 9.90000 -9.20000 65.1000 TC 35 11 249
1970274S08076 1971 124 SI MM BETSY 1970-10-04 15:00:00 TS -9.45001 64.5577 main 1398 1346 _____P______P_ -1 -9.45001 64.5577 3 -9.45001 64.5577 TC 35 12 245
1970274S08076 1971 124 SI MM BETSY 1970-10-04 18:00:00 TS -9.70000 64.0000 reunion main 1346 1310 _____O______O_ -1 -9.70000 64.0000 99 9.90000 -9.70000 64.0000 TC 35 11 250
1970274S08076 1971 124 SI MM BETSY 1970-10-04 21:00:00 TS -9.82989 63.4924 main 1310 1275 _____P______P_ -1 -9.82989 63.4924 99 -9.82989 63.4924 TC 35 10 259
1970274S08076 1971 124 SI MM BETSY 1970-10-05 00:00:00 TS -9.90000 63.0000 reunion main 1275 1242 _____O______O_ -1 -9.90000 63.0000 99 9.90000 -9.90000 63.0000 TC 35 10 263
1970274S08076 1971 124 SI MM BETSY 1970-10-05 03:00:00 TS -9.95749 62.4850 main 1242 1216 _____P______P_ -1 -9.95749 62.4850 99 -9.95749 62.4850 TC 35 11 265
1970274S08076 1971 124 SI MM BETSY 1970-10-05 06:00:00 TS -10.0000 61.9182 reunion main 1216 1201 O____O___OO_O_ jtwc_sh SH011971 -10.0000 61.7000 -1 -10.0000 62.0000 3 9.90000 -10.0000 61.7000 TC 25 -10.0000 61.7000 1 -10.0000 62.0000 TC 35 10 267
1970274S08076 1971 124 SI MM BETSY 1970-10-05 09:00:00 TS -10.0085 61.5110 main 1201 1191 P____P___PP_P_ SH011971 -10.0001 61.3975 -1 -10.0124 61.5923 3 -10.0001 61.3975 TC 25 -10.0096 61.4128 1 -10.0124 61.5923 TC 35 8 266
1970274S08076 1971 124 SI MM BETSY 1970-10-05 12:00:00 TS -10.0498 61.1507 reunion main 1191 1167 O____O___OP_O_ jtwc_sh SH011971 -10.0000 61.1000 -1 -10.1000 61.2000 99 9.90000 -10.0000 61.1000 TC 25 -10.0153 61.1204 1 -10.1000 61.2000 TC 35 7 258
1970274S08076 1971 124 SI MM BETSY 1970-10-05 15:00:00 TS -10.1566 60.7926 main 1156 1134 P____P___PP_P_ SH011971 -9.99995 60.8075 -1 -10.3849 60.7652 99 -9.99995 60.8075 TC 25 -10.0133 60.8178 1 -10.3849 60.7652 TC 35 8 252
1970274S08076 1971 124 SI MM BETSY 1970-10-05 18:00:00 TS -10.2800 60.4200 reunion main 1134 1124 O____O___OO_O_ jtwc_sh SH011971 -10.0000 60.5000 -1 -10.7000 60.3000 99 9.90000 -10.0000 60.5000 TC 25 -10.0000 60.5000 1 -10.7000 60.3000 TC 35 8 257
1970274S08076 1971 124 SI MM BETSY 1970-10-05 21:00:00 TS -10.3384 60.0181 main 1124 1096 P____P___PP_P_ SH011971 -9.99243 60.1725 -1 -10.8650 59.7924 99 -9.99243 60.1725 TC 25 -9.97689 60.1607 1 -10.8650 59.7924 TC 35 8 262
1970274S08076 1971 124 SI MM BETSY 1970-10-06 00:00:00 TS -10.3934 59.5978 reunion main 1096 1050 O____O___OP_O_ jtwc_sh SH011971 -10.0000 59.8000 -1 -11.0000 59.3000 99 9.90000 -10.0000 59.8000 TC 25 -9.96700 59.7891 1 -11.0000 59.3000 TC 35 8 259
1970274S08076 1971 124 SI MM BETSY 1970-10-06 03:00:00 TS -10.4966 59.1866 main 1050 1005 P____P___PP_P_ SH011971 -10.0124 59.3873 -1 -11.2298 58.8926 99 -10.0124 59.3873 TC 25 -9.99863 59.3730 1 -11.2298 58.8926 TC 35 9 255
1970274S08076 1971 124 SI MM BETSY 1970-10-06 06:00:00 TS -10.6200 58.7400 reunion main 995 950 O____O___OO_O_ jtwc_sh SH011971 -10.1000 58.9000 -1 -11.4000 58.5000 3 9.90000 -10.1000 58.9000 TC 25 -10.1000 58.9000 1 -11.4000 58.5000 TC 35 10 255
1970274S08076 1971 124 SI MM BETSY 1970-10-06 09:00:00 TS -10.7455 58.2234 main 939 880 P____P___PP_P_ SH011971 -10.3125 58.3225 -1 -11.3874 58.0648 3 -10.3125 58.3225 TC 25 -10.3278 58.3421 1 -11.3874 58.0648 TC 35 11 256
1970274S08076 1971 124 SI MM BETSY 1970-10-06 12:00:00 TS -10.8841 57.6662 reunion main 880 814 O____O___OP_O_ jtwc_sh SH011971 -10.6000 57.7000 -1 -11.3000 57.6000 99 9.90000 -10.6000 57.7000 TC 25 -10.6205 57.7311 1 -11.3000 57.6000 TC 35 11 254
1970274S08076 1971 124 SI MM BETSY 1970-10-06 15:00:00 TS -11.0515 57.1009 main 811 756 P____P___PP_P_ SH011971 -10.9075 57.0851 -1 -11.2574 57.1151 99 -10.9075 57.0851 TC 25 -10.9278 57.1045 1 -11.2574 57.1151 TC 35 12 254
1970274S08076 1971 124 SI MM BETSY 1970-10-06 18:00:00 TS -11.2000 56.5400 reunion main 745 690 O____O___OO_O_ jtwc_sh SH011971 -11.2000 56.5000 -1 -11.2000 56.6000 99 9.90000 -11.2000 56.5000 TC 25 -11.2000 56.5000 1 -11.2000 56.6000 TC 35 11 256
1970274S08076 1971 124 SI MM BETSY 1970-10-06 21:00:00 TS -11.3071 56.0161 main 690 634 P____P___PP_P_ SH011971 -11.4373 55.9849 -1 -11.1224 56.0576 99 -11.4373 55.9849 TC 25 -11.4160 55.9957 1 -11.1224 56.0576 TC 35 10 261
1970274S08076 1971 124 SI MM BETSY 1970-10-07 00:00:00 TS -11.3568 55.5031 reunion main 634 586 O____O___OP_O_ jtwc_sh SH011971 -11.6000 55.5000 -1 -11.0000 55.5000 99 9.90000 -11.6000 55.5000 TC 25 -11.5838 55.5153 1 -11.0000 55.5000 TC 35 10 268
1970274S08076 1971 124 SI MM BETSY 1970-10-07 03:00:00 TS -11.3468 55.0005 main 586 535 P____P___PP_P_ SH011971 -11.6948 55.0225 -1 -10.8298 54.9651 99 -11.6948 55.0225 TC 25 -11.6847 55.0272 1 -10.8298 54.9651 TC 35 10 275
1970274S08076 1971 124 SI MM BETSY 1970-10-07 06:00:00 TS -11.2600 54.4600 reunion main 535 484 O____O___OO_O_ jtwc_sh SH011971 -11.7000 54.5000 -1 -10.6000 54.4000 3 9.90000 -11.7000 54.5000 TC 25 -11.7000 54.5000 1 -10.6000 54.4000 TC 35 12 282
1970274S08076 1971 124 SI MM BETSY 1970-10-07 09:00:00 TS -11.1149 53.8410 main 474 429 P____P___PP_P_ SH011971 -11.6450 53.8725 -1 -10.3223 53.7876 3 -11.6450 53.8725 TC 25 -11.6398 53.8846 1 -10.3223 53.7876 TC 35 13 286
1970274S08076 1971 124 SI MM BETSY 1970-10-07 12:00:00 TS -10.8985 53.1659 reunion main 429 377 O____O___OP_O_ jtwc_sh SH011971 -11.5000 53.2000 -1 -10.0000 53.1000 99 9.90000 -11.5000 53.2000 TC 25 -11.4926 53.2296 1 -10.0000 53.1000 TC 35 15 290
1970274S08076 1971 124 SI MM BETSY 1970-10-07 15:00:00 TS -10.6238 52.4549 main 382 330 P____P___PP_P_ SH011971 -11.2874 52.5425 -1 -9.63501 52.3149 99 -11.2874 52.5425 TC 25 -11.2741 52.5598 1 -9.63501 52.3149 TC 35 15 292
1970274S08076 1971 124 SI MM BETSY 1970-10-07 18:00:00 TS -10.3200 51.7400 reunion main 329 297 O____O___OO_O_ jtwc_sh SH011971 -11.0000 51.9000 -1 -9.30000 51.5000 99 9.90000 -11.0000 51.9000 TC 25 -11.0000 51.9000 1 -9.30000 51.5000 TC 35 15 293
1970274S08076 1971 124 SI MM BETSY 1970-10-07 21:00:00 TS -10.0460 51.0871 main 306 279 P____P___PP_P_ SH011971 -10.6648 51.2926 -1 -9.11454 50.7805 99 -10.6648 51.2926 TC 25 -10.6713 51.2893 1 -9.11454 50.7805 TC 32 13 291
1970274S08076 1971 124 SI MM BETSY 1970-10-08 00:00:00 TS -9.83318 50.4649 reunion main 289 279 O____O___OP_O_ jtwc_sh SH011971 -10.3000 50.7000 -1 -8.90000 50.0000 99 9.90000 -10.3000 50.7000 TC 25 -10.2993 50.6920 1 -8.90000 50.0000 TC 30 13 291
1970274S08076 1971 124 SI MM BETSY 1970-10-08 03:00:00 TS -9.56890 49.8413 main 285 285 P____P___PP_P_ SH011971 -9.91986 50.1075 -1 -8.50828 49.0516 99 -9.91986 50.1075 TC 25 -9.92763 50.0987 1 -8.50828 49.0516 TC 27 13 292
1970274S08076 1971 124 SI MM BETSY 1970-10-08 06:00:00 TS -9.37143 49.2857 reunion main 302 302 O____O___OO_O_ jtwc_sh SH011971 -9.60000 49.5000 -1 -8.00000 48.0000 3 9.90000 -9.60000 49.5000 TC 25 -9.60000 49.5000 1 -8.00000 48.0000 TC 25 10 279
1970274S08076 1971 124 SI MM BETSY 1970-10-08 09:00:00 TS -9.41254 48.8571 main 304 304 P________PP___ SH011971 -9.42746 48.8502 -1 3 -9.42746 48.8502 TC 25 -9.38270 48.8707 1 TC 11 275
1970274S08076 1971 124 SI MM BETSY 1970-10-08 12:00:00 TS -9.27079 48.2120 main 332 332 O________OP___ jtwc_sh SH011971 -9.30000 48.2000 -1 -9.30000 48.2000 TC 25 -9.21238 48.2359 1 13 284
1970274S08076 1971 124 SI MM BETSY 1970-10-08 15:00:00 TS -9.09188 47.5927 main 378 378 P________PP___ SH011971 -9.10740 47.5850 -1 -9.10740 47.5850 TC 25 -9.06085 47.6081 1 13 287
1970274S08076 1971 124 SI MM BETSY 1970-10-08 18:00:00 TS -8.90000 47.0000 main 431 431 O________OO___ jtwc_sh SH011971 -8.90000 47.0000 -1 -8.90000 47.0000 TC 25 -8.90000 47.0000 1 12 289
1970274S08076 1971 124 SI MM BETSY 1970-10-08 21:00:00 TS -8.70760 46.4354 main 488 488 P________PP___ SH011971 -8.70739 46.4426 -1 -8.70739 46.4426 TC 25 -8.70801 46.4210 1 12 290
1970274S08076 1971 124 SI MM BETSY 1970-10-09 00:00:00 TS -8.49597 45.8889 main 541 541 O________OP___ jtwc_sh SH011971 -8.50000 45.9000 -1 -8.50000 45.9000 TC 25 -8.48789 45.8667 1 12 293
1970274S08076 1971 124 SI MM BETSY 1970-10-09 03:00:00 TS -8.25639 45.3446 main 581 551 P________PP___ SH011971 -8.26017 45.3523 -1 -8.26017 45.3523 TC 25 -8.24883 45.3290 1 12 295
1970274S08076 1971 124 SI MM BETSY 1970-10-09 06:00:00 TS -8.00000 44.8000 main 551 O________OO___ jtwc_sh SH011971 -8.00000 44.8000 -1 -8.00000 44.8000 TC 25 -8.00000 44.8000 6 12 295

IBTrACS Databaseについて

本データベースは、米国NOAAが公開する1842年以降の世界の熱帯低気圧のベストトラックデータアーカイブInternational Best Track Archive for Climate Stewardship (IBTrACS)を、ウェブで閲覧しやすい形式に変換したものです。

最終更新日:2021-10-27